createdAt,value
2018-06-22T00:02:31.122Z,23.07
2018-06-22T00:05:02.416Z,23.01
2018-06-22T00:07:34.561Z,23.00
2018-06-22T00:10:05.745Z,22.96
2018-06-22T00:12:36.894Z,22.94
2018-06-22T00:15:07.992Z,22.87
2018-06-22T00:17:38.996Z,22.85
2018-06-22T00:20:09.898Z,22.87
2018-06-22T00:22:41.741Z,22.82
2018-06-22T00:25:13.073Z,22.73
2018-06-22T00:27:46.134Z,22.68
2018-06-22T00:30:17.653Z,22.75
2018-06-22T00:32:49.835Z,22.77
2018-06-22T00:35:23.660Z,22.75
2018-06-22T00:37:54.653Z,22.69
2018-06-22T00:40:27.684Z,22.63
2018-06-22T00:42:58.949Z,22.56
2018-06-22T00:45:30.468Z,22.57
2018-06-22T00:48:01.748Z,22.51
2018-06-22T00:50:32.784Z,22.49
2018-06-22T00:53:04.309Z,22.46
2018-06-22T00:55:36.323Z,22.41
2018-06-22T00:58:07.532Z,22.38
2018-06-22T01:00:39.027Z,22.36
2018-06-22T01:03:10.333Z,22.33
2018-06-22T01:05:42.334Z,22.33
2018-06-22T01:08:14.054Z,22.23
2018-06-22T01:10:45.182Z,22.33
2018-06-22T01:13:16.371Z,22.43
2018-06-22T01:15:47.456Z,22.46
2018-06-22T01:18:18.638Z,22.54
2018-06-22T01:20:51.469Z,22.58
2018-06-22T01:23:22.351Z,22.65
2018-06-22T01:25:53.532Z,22.77
2018-06-22T01:28:25.526Z,22.78
2018-06-22T01:30:59.748Z,22.84
2018-06-22T01:33:31.577Z,22.90
2018-06-22T01:36:03.826Z,22.97
2018-06-22T01:38:36.152Z,22.97
2018-06-22T01:41:07.306Z,23.02
2018-06-22T01:43:38.774Z,23.07
2018-06-22T01:46:10.154Z,23.02
2018-06-22T01:48:41.663Z,23.01
2018-06-22T01:51:12.507Z,22.86
2018-06-22T01:53:44.002Z,22.77
2018-06-22T01:56:15.759Z,22.71
2018-06-22T01:58:46.809Z,22.61
2018-06-22T02:01:20.163Z,22.65
2018-06-22T02:03:52.474Z,22.59
2018-06-22T02:06:24.007Z,22.49
2018-06-22T02:08:58.074Z,22.50
2018-06-22T02:11:30.162Z,22.35
2018-06-22T02:14:01.241Z,22.33
2018-06-22T02:16:33.981Z,22.33
2018-06-22T02:19:05.049Z,22.24
2018-06-22T02:21:36.680Z,22.24
2018-06-22T02:24:10.036Z,22.23
2018-06-22T02:26:41.740Z,22.17
2018-06-22T02:29:12.723Z,22.21
2018-06-22T02:31:43.889Z,22.23
2018-06-22T02:34:17.979Z,22.23
2018-06-22T02:36:49.419Z,22.23
2018-06-22T02:39:20.675Z,22.22
2018-06-22T02:41:52.282Z,22.20
2018-06-22T02:44:23.482Z,22.24
2018-06-22T02:46:54.464Z,22.30
2018-06-22T02:49:25.352Z,22.40
2018-06-22T02:51:56.695Z,22.43
2018-06-22T02:54:28.019Z,22.42
2018-06-22T02:56:59.267Z,22.49
2018-06-22T02:59:30.348Z,22.53
2018-06-22T03:02:01.517Z,22.64
2018-06-22T03:04:32.835Z,22.64
2018-06-22T03:07:04.799Z,22.75
2018-06-22T03:09:36.354Z,22.87
2018-06-22T03:12:08.185Z,22.94
2018-06-22T03:14:40.272Z,23.01
2018-06-22T03:17:12.267Z,23.04
2018-06-22T03:19:44.072Z,23.12
2018-06-22T03:22:16.384Z,23.29
2018-06-22T03:24:48.001Z,23.51
2018-06-22T03:27:19.866Z,23.75
2018-06-22T03:29:51.479Z,24.04
2018-06-22T03:32:22.418Z,24.28
2018-06-22T03:34:54.334Z,24.60
2018-06-22T03:37:25.470Z,24.78
2018-06-22T03:39:56.973Z,24.93
2018-06-22T03:42:30.363Z,25.03
2018-06-22T03:45:02.138Z,25.00
2018-06-22T03:47:35.043Z,25.08
2018-06-22T03:50:06.261Z,25.00
2018-06-22T03:52:37.457Z,24.60
2018-06-22T03:55:09.596Z,24.66
2018-06-22T03:57:40.527Z,25.01
2018-06-22T04:00:12.169Z,25.58
2018-06-22T04:02:44.315Z,25.72
2018-06-22T04:05:16.927Z,25.64
2018-06-22T04:07:48.211Z,25.53
2018-06-22T04:10:19.755Z,25.27
2018-06-22T04:12:50.902Z,25.02
2018-06-22T04:15:23.665Z,25.39
2018-06-22T04:17:55.660Z,25.40
2018-06-22T04:20:27.299Z,25.16
2018-06-22T04:22:58.290Z,25.62
2018-06-22T04:25:29.434Z,26.32
2018-06-22T04:28:00.527Z,26.53
2018-06-22T04:30:31.814Z,26.52
2018-06-22T04:33:03.375Z,26.11
2018-06-22T04:35:37.098Z,26.13
2018-06-22T04:38:08.390Z,26.71
2018-06-22T04:40:40.929Z,27.23
2018-06-22T04:43:11.959Z,28.39
2018-06-22T04:45:44.426Z,28.81
2018-06-22T04:48:16.152Z,29.61
2018-06-22T04:50:47.473Z,30.20
2018-06-22T04:53:21.614Z,30.87
2018-06-22T04:55:54.336Z,30.72
2018-06-22T04:58:26.305Z,31.49
2018-06-22T05:00:57.723Z,31.95
2018-06-22T05:03:30.093Z,31.63
2018-06-22T05:06:03.047Z,31.37
2018-06-22T05:08:35.608Z,31.08
2018-06-22T05:11:07.258Z,30.78
2018-06-22T05:13:38.874Z,30.67
2018-06-22T05:16:10.616Z,30.00
2018-06-22T05:18:42.214Z,28.89
2018-06-22T05:21:13.378Z,28.25
2018-06-22T05:23:44.562Z,28.32
2018-06-22T05:26:17.088Z,28.26
2018-06-22T05:28:49.187Z,28.16
2018-06-22T05:31:20.261Z,28.12
2018-06-22T05:33:52.022Z,27.96
2018-06-22T05:36:23.861Z,28.42
2018-06-22T05:38:54.906Z,28.69
2018-06-22T05:41:26.162Z,28.36
2018-06-22T05:43:58.421Z,28.33
2018-06-22T05:46:29.915Z,28.62
2018-06-22T05:49:01.150Z,29.17
2018-06-22T05:51:32.431Z,29.49
2018-06-22T05:54:03.621Z,29.64
2018-06-22T05:56:35.097Z,30.35
2018-06-22T05:59:06.598Z,31.41
2018-06-22T06:01:37.508Z,31.86
2018-06-22T06:04:11.904Z,31.91
2018-06-22T06:06:44.287Z,32.88
2018-06-22T06:09:19.847Z,34.43
2018-06-22T06:11:51.906Z,34.42
2018-06-22T06:14:23.228Z,35.65
2018-06-22T06:16:54.318Z,35.80
2018-06-22T06:19:26.500Z,36.64
2018-06-22T06:21:57.883Z,37.79
2018-06-22T06:24:29.122Z,38.52
2018-06-22T06:27:00.258Z,38.30
2018-06-22T06:29:32.879Z,38.21
2018-06-22T06:32:07.588Z,38.28
2018-06-22T06:34:39.017Z,36.44
2018-06-22T06:37:10.503Z,34.69
2018-06-22T06:39:42.741Z,34.83
2018-06-22T06:42:14.913Z,34.46
2018-06-22T06:44:46.334Z,34.01
2018-06-22T06:47:17.696Z,35.14
2018-06-22T06:49:48.895Z,37.54
2018-06-22T06:52:20.092Z,38.73
2018-06-22T06:54:52.582Z,40.29
2018-06-22T06:57:23.644Z,39.44
2018-06-22T06:59:55.297Z,39.03
2018-06-22T07:02:28.263Z,40.25
2018-06-22T07:04:59.692Z,40.12
2018-06-22T07:07:30.861Z,40.78
2018-06-22T07:10:02.298Z,41.31
2018-06-22T07:12:34.020Z,41.90
2018-06-22T07:15:06.173Z,40.55
2018-06-22T07:17:37.431Z,38.12
2018-06-22T07:20:08.362Z,37.58
2018-06-22T07:22:39.720Z,37.54
2018-06-22T07:25:10.726Z,39.98
2018-06-22T07:27:41.842Z,40.45
2018-06-22T07:30:12.984Z,40.86
2018-06-22T07:32:45.726Z,40.87
2018-06-22T07:35:16.809Z,41.18
2018-06-22T07:37:48.123Z,42.46
2018-06-22T07:40:19.412Z,42.23
2018-06-22T07:42:50.652Z,40.79
2018-06-22T07:45:21.905Z,40.70
2018-06-22T07:47:53.210Z,41.41
2018-06-22T07:50:24.165Z,40.24
2018-06-22T07:52:55.532Z,40.13
2018-06-22T07:55:27.055Z,40.09
2018-06-22T07:57:58.226Z,39.53
2018-06-22T08:00:29.829Z,39.69
2018-06-22T08:03:00.889Z,37.54
2018-06-22T08:05:34.196Z,37.25
2018-06-22T08:08:05.908Z,35.65
2018-06-22T08:10:36.946Z,37.03
2018-06-22T08:13:08.709Z,37.78
2018-06-22T08:15:41.265Z,36.89
2018-06-22T08:18:15.065Z,37.06
2018-06-22T08:20:47.355Z,36.42
2018-06-22T08:23:18.729Z,35.52
2018-06-22T08:25:49.695Z,35.57
2018-06-22T08:28:20.944Z,33.68
2018-06-22T08:30:52.080Z,33.54
2018-06-22T08:33:23.569Z,33.58
2018-06-22T08:35:54.950Z,33.45
2018-06-22T08:38:26.343Z,33.50
2018-06-22T08:40:57.444Z,33.87
2018-06-22T08:43:29.589Z,33.50
2018-06-22T08:46:00.564Z,33.24
2018-06-22T08:48:31.999Z,32.84
2018-06-22T08:51:03.151Z,32.54
2018-06-22T08:53:34.409Z,32.45
2018-06-22T08:56:05.623Z,32.27
2018-06-22T08:58:38.476Z,31.85
2018-06-22T09:01:09.715Z,31.14
2018-06-22T09:03:41.749Z,31.30
2018-06-22T09:06:12.864Z,31.28
2018-06-22T09:08:43.837Z,30.94
2018-06-22T09:11:14.974Z,30.76
2018-06-22T09:13:48.728Z,30.58
2018-06-22T09:16:20.064Z,30.74
2018-06-22T09:18:51.258Z,30.78
2018-06-22T09:21:22.649Z,30.44
2018-06-22T09:23:53.684Z,30.53
2018-06-22T09:26:25.729Z,30.30
2018-06-22T09:28:57.597Z,30.19
2018-06-22T09:31:29.043Z,30.06
2018-06-22T09:34:00.431Z,30.37
2018-06-22T09:36:32.536Z,29.87
2018-06-22T09:39:03.714Z,29.91
2018-06-22T09:41:34.774Z,30.10
2018-06-22T09:44:06.087Z,30.24
2018-06-22T09:46:37.080Z,30.10
2018-06-22T09:49:08.297Z,29.85
2018-06-22T09:51:39.429Z,30.08
2018-06-22T09:54:10.617Z,30.40
2018-06-22T09:56:42.766Z,30.17
2018-06-22T09:59:13.834Z,30.33
2018-06-22T10:01:45.264Z,29.98
2018-06-22T10:04:17.221Z,30.09
2018-06-22T10:06:48.774Z,29.59
2018-06-22T10:09:19.850Z,29.57
2018-06-22T10:11:51.039Z,29.73
2018-06-22T10:14:23.173Z,29.92
2018-06-22T10:16:54.300Z,29.74
2018-06-22T10:19:25.546Z,29.77
2018-06-22T10:21:56.748Z,29.94
2018-06-22T10:24:28.128Z,29.77
2018-06-22T10:26:59.417Z,30.04
2018-06-22T10:29:30.893Z,29.91
2018-06-22T10:32:02.032Z,29.91
2018-06-22T10:34:33.417Z,29.62
2018-06-22T10:37:04.540Z,29.46
2018-06-22T10:39:35.724Z,29.30
2018-06-22T10:42:06.853Z,28.91
2018-06-22T10:44:38.558Z,28.97
2018-06-22T10:47:10.144Z,28.89
2018-06-22T10:49:41.436Z,28.94
2018-06-22T10:52:12.474Z,29.08
2018-06-22T10:54:43.453Z,29.10
2018-06-22T10:57:14.720Z,28.96
2018-06-22T10:59:46.168Z,28.95
2018-06-22T11:02:18.081Z,28.85
2018-06-22T11:04:49.798Z,29.04
2018-06-22T11:07:22.757Z,28.64
2018-06-22T11:09:53.893Z,28.93
2018-06-22T11:12:25.086Z,27.92
2018-06-22T11:14:56.166Z,27.95
2018-06-22T11:17:28.208Z,28.08
2018-06-22T11:20:00.398Z,28.08
2018-06-22T11:22:32.515Z,27.96
2018-06-22T11:25:03.961Z,27.96
2018-06-22T11:27:36.452Z,28.37
2018-06-22T11:30:07.810Z,27.94
2018-06-22T11:32:38.911Z,27.81
2018-06-22T11:35:10.121Z,27.60
2018-06-22T11:37:41.247Z,27.69
2018-06-22T11:40:12.557Z,27.80
2018-06-22T11:42:43.661Z,27.49
2018-06-22T11:45:15.630Z,27.60
2018-06-22T11:47:46.571Z,27.96
2018-06-22T11:50:17.820Z,28.12
2018-06-22T11:52:49.079Z,28.21
2018-06-22T11:55:20.165Z,28.40
2018-06-22T11:57:51.369Z,28.64
2018-06-22T12:00:22.901Z,28.92
2018-06-22T12:02:54.238Z,28.94
2018-06-22T12:05:26.064Z,28.93
2018-06-22T12:07:57.195Z,28.44
2018-06-22T12:10:29.168Z,28.12
2018-06-22T12:13:00.370Z,27.45
2018-06-22T12:15:31.480Z,27.98
2018-06-22T12:18:02.741Z,27.47
2018-06-22T12:20:33.830Z,27.58
2018-06-22T12:23:14.231Z,28.05
2018-06-22T12:25:45.223Z,28.06
2018-06-22T12:28:16.421Z,28.05
2018-06-22T12:30:48.416Z,27.85
2018-06-22T12:33:20.470Z,27.90
2018-06-22T12:35:51.649Z,27.90
2018-06-22T12:38:22.680Z,27.67
2018-06-22T12:40:54.332Z,27.46
2018-06-22T12:43:25.512Z,27.87
2018-06-22T12:45:56.878Z,28.25
2018-06-22T12:48:28.852Z,28.03
2018-06-22T12:51:00.554Z,28.03
2018-06-22T12:53:31.405Z,27.86
2018-06-22T12:56:02.562Z,28.19
2018-06-22T12:58:33.788Z,28.52
2018-06-22T13:01:05.075Z,28.47
2018-06-22T13:03:36.445Z,27.98
2018-06-22T13:06:08.582Z,27.84
2018-06-22T13:08:40.895Z,28.12
2018-06-22T13:11:12.167Z,28.27
2018-06-22T13:13:43.451Z,27.92
2018-06-22T13:16:14.770Z,27.88
2018-06-22T13:18:46.880Z,27.84
2018-06-22T13:21:18.011Z,27.77
2018-06-22T13:23:49.093Z,27.83
2018-06-22T13:26:19.996Z,27.96
2018-06-22T13:28:52.051Z,27.59
2018-06-22T13:31:23.186Z,27.74
2018-06-22T13:33:54.222Z,27.73
2018-06-22T13:36:25.281Z,27.85
2018-06-22T13:38:56.215Z,27.78
2018-06-22T13:41:27.599Z,27.12
2018-06-22T13:43:59.374Z,27.07
2018-06-22T13:46:30.668Z,27.37
2018-06-22T13:49:03.047Z,27.16
2018-06-22T13:51:34.565Z,27.39
2018-06-22T13:54:05.731Z,27.65
2018-06-22T13:56:37.911Z,27.69
2018-06-22T13:59:09.126Z,27.44
2018-06-22T14:01:40.099Z,27.70
2018-06-22T14:04:16.759Z,27.74
2018-06-22T14:06:52.384Z,28.02
2018-06-22T14:09:23.698Z,27.98
2018-06-22T14:11:54.999Z,28.01
2018-06-22T14:14:26.760Z,27.94
2018-06-22T14:16:58.030Z,27.87
2018-06-22T14:19:29.148Z,27.66
2018-06-22T14:22:00.148Z,28.01
2018-06-22T14:24:31.083Z,27.93
2018-06-22T14:27:02.208Z,28.02
2018-06-22T14:29:34.491Z,28.08
2018-06-22T14:32:05.693Z,28.30
2018-06-22T14:34:36.838Z,28.40
2018-06-22T14:37:09.073Z,28.47
2018-06-22T14:39:40.089Z,28.53
2018-06-22T14:42:11.328Z,28.53
2018-06-22T14:44:42.234Z,28.61
2018-06-22T14:47:13.425Z,28.57
2018-06-22T14:49:44.523Z,28.69
2018-06-22T14:52:15.491Z,28.78
2018-06-22T14:54:51.919Z,28.94
2018-06-22T14:57:28.337Z,28.97
2018-06-22T15:00:04.254Z,29.02
2018-06-22T15:02:40.956Z,29.12
2018-06-22T15:05:16.907Z,28.87
2018-06-22T15:07:57.817Z,28.99
2018-06-22T15:10:29.004Z,29.02
2018-06-22T15:13:00.175Z,28.41
2018-06-22T15:15:31.216Z,27.68
2018-06-22T15:18:02.290Z,27.75
2018-06-22T15:20:33.426Z,27.67
2018-06-22T15:23:05.661Z,27.84
2018-06-22T15:25:37.883Z,28.07
2018-06-22T15:28:08.981Z,28.28
2018-06-22T15:30:40.085Z,28.00
2018-06-22T15:33:16.825Z,28.24
2018-06-22T15:35:52.615Z,27.85
2018-06-22T15:38:28.571Z,28.03
2018-06-22T15:41:04.759Z,27.60
2018-06-22T15:43:40.778Z,27.58
2018-06-22T15:46:16.788Z,27.84
2018-06-22T15:48:53.226Z,27.85
2018-06-22T15:51:29.306Z,27.77
2018-06-22T15:54:05.378Z,27.21
2018-06-22T15:56:36.620Z,27.09
2018-06-22T15:59:07.751Z,26.97
2018-06-22T16:01:39.374Z,27.16
2018-06-22T16:04:11.869Z,27.35
2018-06-22T16:06:43.130Z,27.25
2018-06-22T16:09:14.220Z,26.83
2018-06-22T16:11:45.346Z,26.52
2018-06-22T16:14:21.304Z,26.56
2018-06-22T16:16:57.205Z,26.65
2018-06-22T16:19:33.499Z,26.78
2018-06-22T16:22:09.844Z,26.04
2018-06-22T16:25:48.980Z,25.77
2018-06-22T16:28:19.992Z,25.81
2018-06-22T16:30:51.213Z,25.66
2018-06-22T16:33:22.362Z,25.87
2018-06-22T16:35:53.528Z,25.68
2018-06-22T16:38:24.752Z,25.79
2018-06-22T16:40:56.575Z,25.90
2018-06-22T16:43:29.448Z,26.08
2018-06-22T16:46:00.497Z,26.08
2018-06-22T16:48:31.481Z,26.18
2018-06-22T16:51:02.831Z,26.14
2018-06-22T16:53:33.942Z,26.06
2018-06-22T16:56:06.067Z,25.89
2018-06-22T16:58:40.076Z,26.04
2018-06-22T17:01:12.402Z,25.97
2018-06-22T17:03:43.452Z,25.88
2018-06-22T17:06:14.923Z,25.80
2018-06-22T17:08:50.863Z,25.69
2018-06-22T17:11:26.967Z,25.58
2018-06-22T17:14:02.860Z,25.56
2018-06-22T17:16:38.710Z,25.34
2018-06-22T17:19:09.924Z,25.32
2018-06-22T17:21:41.749Z,25.35
2018-06-22T17:24:14.166Z,25.24
2018-06-22T17:26:45.465Z,25.23
2018-06-22T17:29:16.714Z,25.14
2018-06-22T17:31:47.908Z,24.96
2018-06-22T17:34:19.013Z,25.01
2018-06-22T17:36:50.205Z,24.91
2018-06-22T17:39:21.368Z,24.80
2018-06-22T17:41:52.415Z,24.72
2018-06-22T17:44:23.547Z,24.61
2018-06-22T17:46:55.068Z,24.55
2018-06-22T17:49:26.880Z,24.55
2018-06-22T17:51:58.255Z,24.53
2018-06-22T17:54:29.406Z,24.18
2018-06-22T17:57:01.341Z,24.32
2018-06-22T17:59:37.284Z,24.21
2018-06-22T18:02:13.634Z,24.15
2018-06-22T18:04:46.633Z,24.16
2018-06-22T18:07:23.244Z,24.16
2018-06-22T18:09:59.528Z,24.06
2018-06-22T18:12:37.186Z,23.99
2018-06-22T18:15:08.428Z,23.93
2018-06-22T18:17:39.625Z,23.93
2018-06-22T18:20:10.860Z,23.94
2018-06-22T18:22:41.986Z,23.94
2018-06-22T18:25:14.103Z,23.97
2018-06-22T18:27:46.401Z,23.90
2018-06-22T18:30:18.037Z,23.87
2018-06-22T18:32:49.246Z,23.85
2018-06-22T18:35:20.868Z,23.89
2018-06-22T18:37:51.991Z,23.96
2018-06-22T18:40:23.078Z,23.97
2018-06-22T18:42:55.309Z,23.99
2018-06-22T18:45:27.044Z,23.95
2018-06-22T18:47:58.283Z,23.71
2018-06-22T18:50:29.172Z,23.67
2018-06-22T18:53:06.363Z,23.64
2018-06-22T18:55:42.248Z,23.57
2018-06-22T18:58:17.930Z,23.58
2018-06-22T19:00:54.545Z,23.52
2018-06-22T19:03:30.519Z,23.50
2018-06-22T19:06:01.630Z,23.43
2018-06-22T19:08:32.765Z,23.43
2018-06-22T19:11:04.043Z,23.40
2018-06-22T19:13:38.144Z,23.40
2018-06-22T19:16:09.271Z,23.27
2018-06-22T19:18:40.834Z,23.25
2018-06-22T19:21:12.125Z,23.26
2018-06-22T19:23:43.195Z,23.28
2018-06-22T19:26:14.379Z,23.24
2018-06-22T19:28:45.525Z,23.31
2018-06-22T19:31:16.656Z,23.40
2018-06-22T19:33:47.973Z,23.53
2018-06-22T19:36:19.438Z,23.67
2018-06-22T19:38:51.208Z,23.68
2018-06-22T19:41:22.334Z,23.68
2018-06-22T19:43:58.397Z,23.71
2018-06-22T19:46:34.473Z,23.82
2018-06-22T19:49:10.540Z,23.76
2018-06-22T19:52:45.855Z,23.73
2018-06-22T19:55:17.313Z,23.39
2018-06-22T19:57:48.522Z,23.34
2018-06-22T20:00:20.888Z,23.47
2018-06-22T20:02:51.957Z,23.47
2018-06-22T20:05:25.119Z,23.40
2018-06-22T20:07:56.841Z,23.36
2018-06-22T20:10:28.424Z,23.36
2018-06-22T20:12:59.565Z,23.25
2018-06-22T20:15:30.823Z,23.32
2018-06-22T20:18:02.224Z,23.40
2018-06-22T20:20:33.668Z,23.17
2018-06-22T20:23:05.926Z,23.24
2018-06-22T20:25:41.795Z,23.09
2018-06-22T20:28:12.738Z,23.03
2018-06-22T20:30:44.541Z,23.01
2018-06-22T20:33:16.244Z,23.07
2018-06-22T20:35:52.062Z,23.10
2018-06-22T20:38:28.131Z,23.25
2018-06-22T20:41:04.057Z,23.23
2018-06-22T20:43:40.115Z,23.19
2018-06-22T20:46:11.394Z,23.22
2018-06-22T20:48:47.235Z,23.20
2018-06-22T20:51:18.587Z,22.96
2018-06-22T20:53:49.632Z,22.85
2018-06-22T20:56:21.029Z,22.76
2018-06-22T20:58:51.951Z,22.69
2018-06-22T21:01:23.011Z,22.65
2018-06-22T21:03:53.934Z,22.65
2018-06-22T21:06:24.903Z,22.69
2018-06-22T21:08:56.210Z,22.76
2018-06-22T21:11:27.707Z,22.90
2018-06-22T21:13:59.781Z,22.79
2018-06-22T21:16:31.265Z,22.73
2018-06-22T21:19:02.943Z,22.77
2018-06-22T21:21:39.773Z,22.77
2018-06-22T21:24:10.873Z,22.92
2018-06-22T21:26:42.391Z,23.02
2018-06-22T21:29:19.015Z,23.15
2018-06-22T21:31:55.249Z,23.17
2018-06-22T21:34:31.398Z,23.18
2018-06-22T21:37:08.170Z,23.27
2018-06-22T21:39:39.210Z,23.17
2018-06-22T21:42:10.584Z,23.10
2018-06-22T21:44:41.618Z,22.92
2018-06-22T21:47:13.051Z,22.80
2018-06-22T21:49:44.108Z,22.75
2018-06-22T21:52:15.928Z,22.55
2018-06-22T21:54:46.994Z,22.52
2018-06-22T21:57:18.318Z,22.56
2018-06-22T21:59:49.284Z,22.45
2018-06-22T22:02:20.735Z,22.43
2018-06-22T22:04:51.789Z,22.35
2018-06-22T22:07:22.764Z,22.31
2018-06-22T22:09:53.935Z,22.20
2018-06-22T22:12:25.152Z,22.10
2018-06-22T22:14:56.254Z,21.84
2018-06-22T22:17:27.467Z,21.93
2018-06-22T22:20:00.971Z,21.94
2018-06-22T22:22:32.042Z,21.88
2018-06-22T22:25:04.293Z,22.07
2018-06-22T22:27:35.345Z,22.09
2018-06-22T22:30:08.294Z,22.09
2018-06-22T22:32:40.252Z,22.01
2018-06-22T22:35:11.336Z,21.97
2018-06-22T22:37:42.837Z,21.93
2018-06-22T22:40:13.827Z,21.81
2018-06-22T22:42:44.831Z,21.61
2018-06-22T22:45:15.779Z,21.65
2018-06-22T22:47:47.931Z,21.66
2018-06-22T22:50:19.018Z,21.77
2018-06-22T22:52:51.206Z,21.87
2018-06-22T22:55:23.438Z,21.86
2018-06-22T22:57:54.828Z,21.83
2018-06-22T23:00:26.749Z,21.77
2018-06-22T23:02:57.676Z,21.74
2018-06-22T23:05:28.686Z,21.80
2018-06-22T23:07:59.658Z,21.68
2018-06-22T23:10:31.415Z,21.51
2018-06-22T23:13:02.329Z,21.46
2018-06-22T23:15:33.465Z,21.40
2018-06-22T23:18:04.526Z,21.45
2018-06-22T23:20:35.623Z,21.50
2018-06-22T23:23:17.340Z,21.56
2018-06-22T23:25:48.492Z,21.32
2018-06-22T23:28:19.588Z,21.34
2018-06-22T23:30:50.805Z,21.17
2018-06-22T23:33:22.329Z,21.28
2018-06-22T23:35:53.527Z,21.35
2018-06-22T23:38:24.886Z,21.40
2018-06-22T23:40:56.167Z,21.32
2018-06-22T23:43:27.534Z,21.31
2018-06-22T23:45:58.587Z,21.40
2018-06-22T23:48:30.903Z,21.44
2018-06-22T23:51:02.940Z,21.51
2018-06-22T23:53:34.803Z,21.57
2018-06-22T23:56:05.892Z,21.60
2018-06-22T23:58:37.077Z,21.63
